Terminal Aerodrome Forecast
Issued by NWS Blacksburg, VA

Home | Current Version | Previous Version | Text Only | Print | Product List | Glossary On
Versions: 1 2 3 4 5 6 7 8 9 10 11 12 13
000
FTUS41 KRNK 260522
TAFROA
TAF
KROA 260522Z 2606/2706 00000KT P6SM SCT050 BKN100
     FM261500 27005KT P6SM SCT045 SCT080
     FM261800 25006KT P6SM VCTS BKN050CB
     FM270100 29004KT P6SM SCT060 BKN100=

USA.gov is the U.S. government's official web portal to all federal, state and local government web resources and services.